Salten — LMFM — position and weather

sailwx.info

Track history (hours):
 
Tides and Currents Weather Stations Pressure Air Temp Water Temp Dewpoint Dewpoint Depression Visibility Wind Speed Wind Dir Waves Ship Positions

Salten

Last reported at 2018-Apr-19 09:30 UTC. Time now 2018-Apr-24 00:44 UTC.
Position N 67°35' E 014°24'.

Length 41 m; draft 2 m.

Type: High speed craft. MMSI: 259387000.

Date/timePositionNaut miles runAvg speedWind from/ knotsBaromVisibWave heightAir tempDewpointWater temp
2018-Apr-19 09:30N 67°35' E 014°24'1427.7
2018-Apr-19 09:01N 67°21' E 014°24'4 8.2
2018-Apr-19 08:31N 67°17' E 014°22'2 3.3
2018-Apr-19 08:00N 67°19' E 014°24'15 1.0
2018-Apr-18 16:05N 67°33' E 014°41'329.3
2018-Apr-18 15:59N 67°30' E 014°38'1328.6
2018-Apr-18 15:31N 67°18' E 014°22'1 1.2
2018-Apr-18 15:01N 67°17' E 014°22'0 0.9
2018-Apr-18 14:30N 67°17' E 014°23'0 0.9
2018-Apr-18 14:00N 67°17' E 014°22'0 0.0
2018-Apr-18 13:30N 67°17' E 014°22'0 0.0
2018-Apr-18 13:00N 67°17' E 014°22'0 0.0
2018-Apr-18 12:30N 67°17' E 014°22'0 0.0
2018-Apr-18 12:00N 67°17' E 014°22'0 0.0
2018-Apr-18 11:30N 67°17' E 014°22'0 0.0
2018-Apr-18 11:00N 67°17' E 014°22'0 0.0
2018-Apr-18 10:30N 67°17' E 014°22'0 0.0
2018-Apr-18 10:01N 67°17' E 014°22'0 0.0
2018-Apr-18 09:31N 67°17' E 014°22'0 0.0
2018-Apr-18 09:00N 67°17' E 014°22'0 0.9
2018-Apr-18 08:30N 67°17' E 014°23'0 0.9
2018-Apr-18 08:01N 67°17' E 014°22'15 1.0
2018-Apr-17 16:01N 67°32' E 014°32'027.6
2018-Apr-17 16:01N 67°32' E 014°32'1427.4
2018-Apr-17 15:31N 67°18' E 014°23'1 2.4
2018-Apr-17 15:00N 67°17' E 014°22'0 0.0
2018-Apr-17 14:30N 67°17' E 014°22'0 0.0
2018-Apr-17 14:00N 67°17' E 014°22'0 0.0
2018-Apr-17 13:30N 67°17' E 014°22'0 0.0
2018-Apr-17 13:00N 67°17' E 014°22'0 0.0
2018-Apr-17 12:30N 67°17' E 014°22'0 0.0
2018-Apr-17 12:00N 67°17' E 014°22'0 0.0
2018-Apr-17 11:30N 67°17' E 014°22'0 0.0
2018-Apr-17 11:00N 67°17' E 014°22'0 0.2
2018-Apr-17 10:30N 67°17' E 014°22'0 0.6
2018-Apr-17 10:00N 67°17' E 014°23'816.3
2018-Apr-17 09:31N 67°12' E 014°08'1223.1
2018-Apr-17 08:59N 67°03' E 013°47'2414.0
2018-Apr-17 07:16N 66°43' E 013°14'412.4
2018-Apr-17 06:59N 66°40' E 013°09'814.4
2018-Apr-17 06:26N 66°33' E 012°58'717.0
2018-Apr-17 06:01N 66°27' E 012°49'918.9
2018-Apr-17 05:30N 66°17' E 012°54'918.5
2018-Apr-17 05:00N 66°08' E 012°50'3 0.3
2018-Apr-16 19:11N 66°07' E 012°44'528.1
2018-Apr-16 19:01N 66°09' E 012°55'918.4
2018-Apr-16 18:30N 66°19' E 012°53'917.1
2018-Apr-16 18:01N 66°27' E 012°49'1016.9
2018-Apr-16 17:23N 66°37' E 012°59'512.1
2018-Apr-16 16:59N 66°40' E 013°08'1711.4
2018-Apr-16 15:30N 66°54' E 013°34'1121.0
2018-Apr-16 15:00N 67°03' E 013°47'1326.7
2018-Apr-16 14:31N 67°12' E 014°10'713.4
2018-Apr-16 14:00N 67°17' E 014°22'1 1.3
2018-Apr-16 13:30N 67°17' E 014°24'1 1.3
2018-Apr-16 13:00N 67°17' E 014°22'0 0.0
2018-Apr-16 12:30N 67°17' E 014°22'0 0.0
2018-Apr-16 12:00N 67°17' E 014°22'0 0.0
2018-Apr-16 11:30N 67°17' E 014°22'0 0.0
2018-Apr-16 11:00N 67°17' E 014°22'0 0.0
2018-Apr-16 10:30N 67°17' E 014°22'0 0.0
2018-Apr-16 10:00N 67°17' E 014°22'4 7.5
2018-Apr-16 09:31N 67°15' E 014°15'1224.2
2018-Apr-16 09:01N 67°05' E 013°55'2815.8
2018-Apr-16 07:15N 66°43' E 013°13'310.9
2018-Apr-16 07:00N 66°40' E 013°11'813.7
2018-Apr-16 06:27N 66°34' E 012°59'819.0
2018-Apr-16 06:00N 66°27' E 012°49'1019.5
2018-Apr-16 05:30N 66°17' E 012°54'919.0
2018-Apr-16 05:00N 66°08' E 012°50'2 0.2
2018-Apr-15 18:50N 66°07' E 012°45'824.1
2018-Apr-15 18:29N 66°12' E 013°00'8 3.3
2018-Apr-15 16:04N 66°07' E 012°45'429.5
2018-Apr-15 15:56N 66°09' E 012°53'716.4
2018-Apr-15 15:30N 66°16' E 012°54'816.6
2018-Apr-15 15:00N 66°24' E 012°50'915.7
2018-Apr-15 14:27N 66°32' E 012°58'715.7
2018-Apr-15 14:00N 66°39' E 013°03'1912.7
2018-Apr-15 12:30N 66°54' E 013°34'612.3
2018-Apr-15 12:00N 66°60' E 013°37'1223.1
2018-Apr-15 11:30N 67°08' E 013°58'1326.3
2018-Apr-15 11:01N 67°17' E 014°22'0 0.1
2018-Apr-15 10:31N 67°17' E 014°22'0 0.0
2018-Apr-15 10:01N 67°17' E 014°22'0 0.0
2018-Apr-15 09:31N 67°17' E 014°22'0 0.0
2018-Apr-15 09:01N 67°17' E 014°22'0 0.0
2018-Apr-15 08:31N 67°17' E 014°22'0 0.0
2018-Apr-15 08:01N 67°17' E 014°22'0 0.0
2018-Apr-15 07:30N 67°17' E 014°22'0 0.0
2018-Apr-15 07:01N 67°17' E 014°22'0 0.0
2018-Apr-15 06:30N 67°17' E 014°22'0 0.0
2018-Apr-15 06:00N 67°17' E 014°22'0 0.0
2018-Apr-15 05:30N 67°17' E 014°22'0 0.0
2018-Apr-15 05:01N 67°17' E 014°22'0 0.0
2018-Apr-15 04:31N 67°17' E 014°22'0 0.0
2018-Apr-15 04:01N 67°17' E 014°22'0 0.0
2018-Apr-15 03:31N 67°17' E 014°22'0 0.0
2018-Apr-15 03:01N 67°17' E 014°22'0 0.0
2018-Apr-15 02:30N 67°17' E 014°22'0 0.0
2018-Apr-15 02:00N 67°17' E 014°22'0 0.0
2018-Apr-15 01:31N 67°17' E 014°22'0 0.0
2018-Apr-15 01:01N 67°17' E 014°22'0 0.0
2018-Apr-15 00:31N 67°17' E 014°22'0 0.0
2018-Apr-15 00:01N 67°17' E 014°22'0 0.0
2018-Apr-14 23:31N 67°17' E 014°22'0 0.0
2018-Apr-14 23:00N 67°17' E 014°22'0 0.0
2018-Apr-14 22:31N 67°17' E 014°22'0 0.0
2018-Apr-14 22:00N 67°17' E 014°22'0 0.0
2018-Apr-14 21:31N 67°17' E 014°22'0 0.0
2018-Apr-14 21:01N 67°17' E 014°22'0 0.0
2018-Apr-14 20:30N 67°17' E 014°22'0 0.0
2018-Apr-14 20:01N 67°17' E 014°22'0 0.0
2018-Apr-14 19:30N 67°17' E 014°22'0 0.0
2018-Apr-14 19:01N 67°17' E 014°22'0 0.0
2018-Apr-14 18:31N 67°17' E 014°22'0 0.0
2018-Apr-14 18:01N 67°17' E 014°22'0 0.0
2018-Apr-14 17:31N 67°17' E 014°22'0 0.0
2018-Apr-14 17:00N 67°17' E 014°22'0 0.0
2018-Apr-14 16:30N 67°17' E 014°22'0 0.0
2018-Apr-14 16:01N 67°17' E 014°22'0 0.0
2018-Apr-14 15:30N 67°17' E 014°22'0 0.0
2018-Apr-14 15:01N 67°17' E 014°22'0 0.0
2018-Apr-14 14:31N 67°17' E 014°22'0 0.0
2018-Apr-14 14:01N 67°17' E 014°22'0 0.0
2018-Apr-14 13:31N 67°17' E 014°22'0 0.0
2018-Apr-14 13:00N 67°17' E 014°22'0 0.0
2018-Apr-14 12:30N 67°17' E 014°22'0 0.0
2018-Apr-14 12:00N 67°17' E 014°22'0 0.0
2018-Apr-14 11:31N 67°17' E 014°22'0 0.0
2018-Apr-14 11:01N 67°17' E 014°22'0 0.8
2018-Apr-14 10:31N 67°17' E 014°23'0 0.8
2018-Apr-14 10:00N 67°17' E 014°22'1225.4
2018-Apr-14 09:30N 67°08' E 014°02'915.8
2018-Apr-14 08:57N 67°02' E 013°44'2314.8
2018-Apr-14 07:23N 66°42' E 013°13'513.6
2018-Apr-14 07:00N 66°39' E 013°02'815.8
2018-Apr-14 06:30N 66°31' E 012°58'916.9
2018-Apr-14 06:00N 66°24' E 012°50'1218.3
2018-Apr-14 05:19N 66°12' E 013°00'8 0.8
2018-Apr-13 19:24N 66°07' E 012°45'1121.1
2018-Apr-13 18:53N 66°17' E 012°56'616.2
2018-Apr-13 18:30N 66°22' E 012°49'815.8
2018-Apr-13 18:00N 66°29' E 012°58'815.4
2018-Apr-13 17:29N 66°37' E 012°59'814.9
2018-Apr-13 16:56N 66°42' E 013°16'1312.1
2018-Apr-13 15:49N 66°54' E 013°34'411.6
2018-Apr-13 15:30N 66°57' E 013°29'1123.2
2018-Apr-13 15:00N 67°04' E 013°52'1817.6
2018-Apr-13 14:00N 67°17' E 014°22'1 1.3
2018-Apr-13 13:31N 67°17' E 014°24'1 1.2
2018-Apr-13 13:01N 67°17' E 014°22'0 0.1
2018-Apr-13 12:29N 67°17' E 014°22'0 0.0
2018-Apr-13 12:00N 67°17' E 014°22'0 0.0
2018-Apr-13 10:01N 67°17' E 014°22'1918.7
2018-Apr-13 09:00N 67°03' E 013°50'2013.7
2018-Apr-13 07:34N 66°48' E 013°17'617.8
2018-Apr-13 07:15N 66°43' E 013°14'313.0
2018-Apr-13 06:59N 66°40' E 013°08'714.5
2018-Apr-13 06:28N 66°34' E 012°58'816.7
2018-Apr-13 06:01N 66°27' E 012°49'1019.6
2018-Apr-13 05:30N 66°17' E 012°54'1118.8
2018-Apr-13 04:55N 66°07' E 012°46'3 0.3
2018-Apr-12 19:16N 66°09' E 012°52'517.7
2018-Apr-12 19:00N 66°13' E 012°58'1122.8
2018-Apr-12 18:31N 66°24' E 012°49'713.3
2018-Apr-12 18:00N 66°29' E 012°58'815.4
2018-Apr-12 17:28N 66°37' E 012°59'917.6
2018-Apr-12 16:59N 66°43' E 013°17'1311.2
2018-Apr-12 15:49N 66°54' E 013°31'311.0
2018-Apr-12 15:31N 66°58' E 013°31'1529.4
2018-Apr-12 15:00N 67°08' E 013°58'713.5
2018-Apr-12 14:31N 67°13' E 014°10'612.9
2018-Apr-12 14:00N 67°17' E 014°22'1 1.2
2018-Apr-12 13:31N 67°17' E 014°24'1 1.2
2018-Apr-12 13:00N 67°17' E 014°22'0 0.0
2018-Apr-12 12:30N 67°17' E 014°22'0 0.0
2018-Apr-12 12:01N 67°17' E 014°22'0 0.0
2018-Apr-12 11:30N 67°17' E 014°22'0 0.0
2018-Apr-12 11:00N 67°17' E 014°22'0 0.0
2018-Apr-12 10:31N 67°17' E 014°22'0 0.0
2018-Apr-12 10:00N 67°17' E 014°22'0 0.0
2018-Apr-12 09:30N 67°17' E 014°22'0 0.0
2018-Apr-12 09:01N 67°17' E 014°22'0 0.0
2018-Apr-12 08:30N 67°17' E 014°22'0 0.0
2018-Apr-12 08:01N 67°17' E 014°22'1019.8
2018-Apr-12 07:31N 67°27' E 014°28'11 0.7
2018-Apr-11 16:13N 67°37' E 014°38'627.2
2018-Apr-11 16:00N 67°31' E 014°32'1327.5
2018-Apr-11 15:31N 67°18' E 014°23'1 2.6
2018-Apr-11 15:01N 67°17' E 014°22'0 0.0
2018-Apr-11 14:31N 67°17' E 014°22'0 0.0
2018-Apr-11 14:00N 67°17' E 014°22'0 0.0
2018-Apr-11 13:30N 67°17' E 014°22'0 0.0
2018-Apr-11 13:01N 67°17' E 014°22'0 0.0
2018-Apr-11 12:31N 67°17' E 014°22'0 0.0
2018-Apr-11 12:01N 67°17' E 014°22'0 0.0
2018-Apr-11 11:31N 67°17' E 014°22'0 0.0
2018-Apr-11 11:01N 67°17' E 014°22'0 0.0
2018-Apr-11 10:31N 67°17' E 014°22'0 0.0
2018-Apr-11 10:00N 67°17' E 014°22'0 0.0
2018-Apr-11 09:31N 67°17' E 014°22'0 0.0
2018-Apr-11 09:00N 67°17' E 014°22'0 0.9
2018-Apr-11 08:31N 67°17' E 014°23'0 0.9
2018-Apr-11 08:00N 67°17' E 014°22'1019.4
2018-Apr-11 07:31N 67°27' E 014°28'11 0.7
2018-Apr-10 16:11N 67°37' E 014°38'528.1
2018-Apr-10 15:59N 67°32' E 014°32'1428.9
2018-Apr-10 15:31N 67°19' E 014°23'2 3.2
2018-Apr-10 15:00N 67°17' E 014°22'0 0.0
2018-Apr-10 14:30N 67°17' E 014°22'0 0.0
2018-Apr-10 14:01N 67°17' E 014°22'0 0.0
2018-Apr-10 13:31N 67°17' E 014°22'0 0.0
2018-Apr-10 13:01N 67°17' E 014°22'0 0.0
2018-Apr-10 12:31N 67°17' E 014°22'0 0.0
2018-Apr-10 12:01N 67°17' E 014°22'0 0.0
2018-Apr-10 11:30N 67°17' E 014°22'0 0.0
2018-Apr-10 11:01N 67°17' E 014°22'0 0.0
2018-Apr-10 10:31N 67°17' E 014°22'0 0.8
2018-Apr-10 10:01N 67°17' E 014°23'2 4.5
2018-Apr-10 09:31N 67°16' E 014°18'1325.3
2018-Apr-10 09:00N 67°06' E 013°57'1427.1
2018-Apr-10 08:30N 66°58' E 013°30'1612.3
2018-Apr-10 07:11N 66°43' E 013°14'313.1
2018-Apr-10 06:55N 66°40' E 013°08'915.8
2018-Apr-10 06:23N 66°33' E 012°58'616.6
2018-Apr-10 06:00N 66°27' E 012°50'1121.0
2018-Apr-10 05:30N 66°17' E 012°54'1017.7
2018-Apr-10 04:55N 66°07' E 012°45'4 0.4
2018-Apr-09 18:58N 66°09' E 012°54'1423.5
2018-Apr-09 18:22N 66°23' E 012°48'717.8
2018-Apr-09 17:59N 66°29' E 012°58'912.2
2018-Apr-09 17:16N 66°37' E 012°59'916.2
2018-Apr-09 16:43N 66°43' E 013°17'1311.6
2018-Apr-09 15:34N 66°55' E 013°30'2 7.3
2018-Apr-09 15:21N 66°56' E 013°28'1128.4
2018-Apr-09 14:58N 67°03' E 013°49'1328.2
2018-Apr-09 14:30N 67°13' E 014°11'612.4
2018-Apr-09 14:00N 67°17' E 014°22'1 1.3
2018-Apr-09 13:30N 67°17' E 014°24'1 1.3
2018-Apr-09 13:00N 67°17' E 014°22'0 0.0
2018-Apr-09 12:30N 67°17' E 014°22'0 0.0
2018-Apr-09 12:00N 67°17' E 014°22'0 0.0
2018-Apr-09 11:30N 67°17' E 014°22'0 0.0
2018-Apr-09 11:00N 67°17' E 014°22'0 0.0
2018-Apr-09 10:30N 67°17' E 014°22'0 0.0
2018-Apr-09 10:00N 67°17' E 014°22'0 0.2
2018-Apr-09 09:31N 67°17' E 014°22'  
Track history (hours):
 
Tides and Currents Weather Stations Pressure Air Temp Water Temp Dewpoint Dewpoint Depression Visibility Wind Speed Wind Dir Waves Ship Positions

Salten

Last reported at 2018-Apr-19 09:30 UTC. Time now 2018-Apr-24 00:44 UTC.
Position N 67°35' E 014°24'.

Length 41 m; draft 2 m.

Type: High speed craft. MMSI: 259387000.

Date/timePositionNaut miles runAvg speedWind from/ knotsBaromVisibWave heightAir tempDewpointWater temp
2018-Apr-19 09:30N 67°35' E 014°24'1427.7
2018-Apr-19 09:01N 67°21' E 014°24'4 8.2
2018-Apr-19 08:31N 67°17' E 014°22'2 3.3
2018-Apr-19 08:00N 67°19' E 014°24'15 1.0
2018-Apr-18 16:05N 67°33' E 014°41'329.3
2018-Apr-18 15:59N 67°30' E 014°38'1328.6
2018-Apr-18 15:31N 67°18' E 014°22'1 1.2
2018-Apr-18 15:01N 67°17' E 014°22'0 0.9
2018-Apr-18 14:30N 67°17' E 014°23'0 0.9
2018-Apr-18 14:00N 67°17' E 014°22'0 0.0
2018-Apr-18 13:30N 67°17' E 014°22'0 0.0
2018-Apr-18 13:00N 67°17' E 014°22'0 0.0
2018-Apr-18 12:30N 67°17' E 014°22'0 0.0
2018-Apr-18 12:00N 67°17' E 014°22'0 0.0
2018-Apr-18 11:30N 67°17' E 014°22'0 0.0
2018-Apr-18 11:00N 67°17' E 014°22'0 0.0
2018-Apr-18 10:30N 67°17' E 014°22'0 0.0
2018-Apr-18 10:01N 67°17' E 014°22'0 0.0
2018-Apr-18 09:31N 67°17' E 014°22'0 0.0
2018-Apr-18 09:00N 67°17' E 014°22'0 0.9
2018-Apr-18 08:30N 67°17' E 014°23'0 0.9
2018-Apr-18 08:01N 67°17' E 014°22'15 1.0
2018-Apr-17 16:01N 67°32' E 014°32'027.6
2018-Apr-17 16:01N 67°32' E 014°32'1427.4
2018-Apr-17 15:31N 67°18' E 014°23'1 2.4
2018-Apr-17 15:00N 67°17' E 014°22'0 0.0
2018-Apr-17 14:30N 67°17' E 014°22'0 0.0
2018-Apr-17 14:00N 67°17' E 014°22'0 0.0
2018-Apr-17 13:30N 67°17' E 014°22'0 0.0
2018-Apr-17 13:00N 67°17' E 014°22'0 0.0
2018-Apr-17 12:30N 67°17' E 014°22'0 0.0
2018-Apr-17 12:00N 67°17' E 014°22'0 0.0
2018-Apr-17 11:30N 67°17' E 014°22'0 0.0
2018-Apr-17 11:00N 67°17' E 014°22'0 0.2
2018-Apr-17 10:30N 67°17' E 014°22'0 0.6
2018-Apr-17 10:00N 67°17' E 014°23'816.3
2018-Apr-17 09:31N 67°12' E 014°08'1223.1
2018-Apr-17 08:59N 67°03' E 013°47'2414.0
2018-Apr-17 07:16N 66°43' E 013°14'412.4
2018-Apr-17 06:59N 66°40' E 013°09'814.4
2018-Apr-17 06:26N 66°33' E 012°58'717.0
2018-Apr-17 06:01N 66°27' E 012°49'918.9
2018-Apr-17 05:30N 66°17' E 012°54'918.5
2018-Apr-17 05:00N 66°08' E 012°50'3 0.3
2018-Apr-16 19:11N 66°07' E 012°44'528.1
2018-Apr-16 19:01N 66°09' E 012°55'918.4
2018-Apr-16 18:30N 66°19' E 012°53'917.1
2018-Apr-16 18:01N 66°27' E 012°49'1016.9
2018-Apr-16 17:23N 66°37' E 012°59'512.1
2018-Apr-16 16:59N 66°40' E 013°08'1711.4
2018-Apr-16 15:30N 66°54' E 013°34'1121.0
2018-Apr-16 15:00N 67°03' E 013°47'1326.7
2018-Apr-16 14:31N 67°12' E 014°10'713.4
2018-Apr-16 14:00N 67°17' E 014°22'1 1.3
2018-Apr-16 13:30N 67°17' E 014°24'1 1.3
2018-Apr-16 13:00N 67°17' E 014°22'0 0.0
2018-Apr-16 12:30N 67°17' E 014°22'0 0.0
2018-Apr-16 12:00N 67°17' E 014°22'0 0.0
2018-Apr-16 11:30N 67°17' E 014°22'0 0.0
2018-Apr-16 11:00N 67°17' E 014°22'0 0.0
2018-Apr-16 10:30N 67°17' E 014°22'0 0.0
2018-Apr-16 10:00N 67°17' E 014°22'4 7.5
2018-Apr-16 09:31N 67°15' E 014°15'1224.2
2018-Apr-16 09:01N 67°05' E 013°55'2815.8
2018-Apr-16 07:15N 66°43' E 013°13'310.9
2018-Apr-16 07:00N 66°40' E 013°11'813.7
2018-Apr-16 06:27N 66°34' E 012°59'819.0
2018-Apr-16 06:00N 66°27' E 012°49'1019.5
2018-Apr-16 05:30N 66°17' E 012°54'919.0
2018-Apr-16 05:00N 66°08' E 012°50'2 0.2
2018-Apr-15 18:50N 66°07' E 012°45'824.1
2018-Apr-15 18:29N 66°12' E 013°00'8 3.3
2018-Apr-15 16:04N 66°07' E 012°45'429.5
2018-Apr-15 15:56N 66°09' E 012°53'716.4
2018-Apr-15 15:30N 66°16' E 012°54'816.6
2018-Apr-15 15:00N 66°24' E 012°50'915.7
2018-Apr-15 14:27N 66°32' E 012°58'715.7
2018-Apr-15 14:00N 66°39' E 013°03'1912.7
2018-Apr-15 12:30N 66°54' E 013°34'612.3
2018-Apr-15 12:00N 66°60' E 013°37'1223.1
2018-Apr-15 11:30N 67°08' E 013°58'1326.3
2018-Apr-15 11:01N 67°17' E 014°22'0 0.1
2018-Apr-15 10:31N 67°17' E 014°22'0 0.0
2018-Apr-15 10:01N 67°17' E 014°22'0 0.0
2018-Apr-15 09:31N 67°17' E 014°22'0 0.0
2018-Apr-15 09:01N 67°17' E 014°22'0 0.0
2018-Apr-15 08:31N 67°17' E 014°22'0 0.0
2018-Apr-15 08:01N 67°17' E 014°22'0 0.0
2018-Apr-15 07:30N 67°17' E 014°22'0 0.0
2018-Apr-15 07:01N 67°17' E 014°22'0 0.0
2018-Apr-15 06:30N 67°17' E 014°22'0 0.0
2018-Apr-15 06:00N 67°17' E 014°22'0 0.0
2018-Apr-15 05:30N 67°17' E 014°22'0 0.0
2018-Apr-15 05:01N 67°17' E 014°22'0 0.0
2018-Apr-15 04:31N 67°17' E 014°22'0 0.0
2018-Apr-15 04:01N 67°17' E 014°22'0 0.0
2018-Apr-15 03:31N 67°17' E 014°22'0 0.0
2018-Apr-15 03:01N 67°17' E 014°22'0 0.0
2018-Apr-15 02:30N 67°17' E 014°22'0 0.0
2018-Apr-15 02:00N 67°17' E 014°22'0 0.0
2018-Apr-15 01:31N 67°17' E 014°22'0 0.0
2018-Apr-15 01:01N 67°17' E 014°22'0 0.0
2018-Apr-15 00:31N 67°17' E 014°22'0 0.0
2018-Apr-15 00:01N 67°17' E 014°22'0 0.0
2018-Apr-14 23:31N 67°17' E 014°22'0 0.0
2018-Apr-14 23:00N 67°17' E 014°22'0 0.0
2018-Apr-14 22:31N 67°17' E 014°22'0 0.0
2018-Apr-14 22:00N 67°17' E 014°22'0 0.0
2018-Apr-14 21:31N 67°17' E 014°22'0 0.0
2018-Apr-14 21:01N 67°17' E 014°22'0 0.0
2018-Apr-14 20:30N 67°17' E 014°22'0 0.0
2018-Apr-14 20:01N 67°17' E 014°22'0 0.0
2018-Apr-14 19:30N 67°17' E 014°22'0 0.0
2018-Apr-14 19:01N 67°17' E 014°22'0 0.0
2018-Apr-14 18:31N 67°17' E 014°22'0 0.0
2018-Apr-14 18:01N 67°17' E 014°22'0 0.0
2018-Apr-14 17:31N 67°17' E 014°22'0 0.0
2018-Apr-14 17:00N 67°17' E 014°22'0 0.0
2018-Apr-14 16:30N 67°17' E 014°22'0 0.0
2018-Apr-14 16:01N 67°17' E 014°22'0 0.0
2018-Apr-14 15:30N 67°17' E 014°22'0 0.0
2018-Apr-14 15:01N 67°17' E 014°22'0 0.0
2018-Apr-14 14:31N 67°17' E 014°22'0 0.0
2018-Apr-14 14:01N 67°17' E 014°22'0 0.0
2018-Apr-14 13:31N 67°17' E 014°22'0 0.0
2018-Apr-14 13:00N 67°17' E 014°22'0 0.0
2018-Apr-14 12:30N 67°17' E 014°22'0 0.0
2018-Apr-14 12:00N 67°17' E 014°22'0 0.0
2018-Apr-14 11:31N 67°17' E 014°22'0 0.0
2018-Apr-14 11:01N 67°17' E 014°22'0 0.8
2018-Apr-14 10:31N 67°17' E 014°23'0 0.8
2018-Apr-14 10:00N 67°17' E 014°22'1225.4
2018-Apr-14 09:30N 67°08' E 014°02'915.8
2018-Apr-14 08:57N 67°02' E 013°44'2314.8
2018-Apr-14 07:23N 66°42' E 013°13'513.6
2018-Apr-14 07:00N 66°39' E 013°02'815.8
2018-Apr-14 06:30N 66°31' E 012°58'916.9
2018-Apr-14 06:00N 66°24' E 012°50'1218.3
2018-Apr-14 05:19N 66°12' E 013°00'8 0.8
2018-Apr-13 19:24N 66°07' E 012°45'1121.1
2018-Apr-13 18:53N 66°17' E 012°56'616.2
2018-Apr-13 18:30N 66°22' E 012°49'815.8
2018-Apr-13 18:00N 66°29' E 012°58'815.4
2018-Apr-13 17:29N 66°37' E 012°59'814.9
2018-Apr-13 16:56N 66°42' E 013°16'1312.1
2018-Apr-13 15:49N 66°54' E 013°34'411.6
2018-Apr-13 15:30N 66°57' E 013°29'1123.2
2018-Apr-13 15:00N 67°04' E 013°52'1817.6
2018-Apr-13 14:00N 67°17' E 014°22'1 1.3
2018-Apr-13 13:31N 67°17' E 014°24'1 1.2
2018-Apr-13 13:01N 67°17' E 014°22'0 0.1
2018-Apr-13 12:29N 67°17' E 014°22'0 0.0
2018-Apr-13 12:00N 67°17' E 014°22'0 0.0
2018-Apr-13 10:01N 67°17' E 014°22'1918.7
2018-Apr-13 09:00N 67°03' E 013°50'2013.7
2018-Apr-13 07:34N 66°48' E 013°17'617.8
2018-Apr-13 07:15N 66°43' E 013°14'313.0
2018-Apr-13 06:59N 66°40' E 013°08'714.5
2018-Apr-13 06:28N 66°34' E 012°58'816.7
2018-Apr-13 06:01N 66°27' E 012°49'1019.6
2018-Apr-13 05:30N 66°17' E 012°54'1118.8
2018-Apr-13 04:55N 66°07' E 012°46'3 0.3
2018-Apr-12 19:16N 66°09' E 012°52'517.7
2018-Apr-12 19:00N 66°13' E 012°58'1122.8
2018-Apr-12 18:31N 66°24' E 012°49'713.3
2018-Apr-12 18:00N 66°29' E 012°58'815.4
2018-Apr-12 17:28N 66°37' E 012°59'917.6
2018-Apr-12 16:59N 66°43' E 013°17'1311.2
2018-Apr-12 15:49N 66°54' E 013°31'311.0
2018-Apr-12 15:31N 66°58' E 013°31'1529.4
2018-Apr-12 15:00N 67°08' E 013°58'713.5
2018-Apr-12 14:31N 67°13' E 014°10'612.9
2018-Apr-12 14:00N 67°17' E 014°22'1 1.2
2018-Apr-12 13:31N 67°17' E 014°24'1 1.2
2018-Apr-12 13:00N 67°17' E 014°22'0 0.0
2018-Apr-12 12:30N 67°17' E 014°22'0 0.0
2018-Apr-12 12:01N 67°17' E 014°22'0 0.0
2018-Apr-12 11:30N 67°17' E 014°22'0 0.0
2018-Apr-12 11:00N 67°17' E 014°22'0 0.0
2018-Apr-12 10:31N 67°17' E 014°22'0 0.0
2018-Apr-12 10:00N 67°17' E 014°22'0 0.0
2018-Apr-12 09:30N 67°17' E 014°22'0 0.0
2018-Apr-12 09:01N 67°17' E 014°22'0 0.0
2018-Apr-12 08:30N 67°17' E 014°22'0 0.0
2018-Apr-12 08:01N 67°17' E 014°22'1019.8
2018-Apr-12 07:31N 67°27' E 014°28'11 0.7
2018-Apr-11 16:13N 67°37' E 014°38'627.2
2018-Apr-11 16:00N 67°31' E 014°32'1327.5
2018-Apr-11 15:31N 67°18' E 014°23'1 2.6
2018-Apr-11 15:01N 67°17' E 014°22'0 0.0
2018-Apr-11 14:31N 67°17' E 014°22'0 0.0
2018-Apr-11 14:00N 67°17' E 014°22'0 0.0
2018-Apr-11 13:30N 67°17' E 014°22'0 0.0
2018-Apr-11 13:01N 67°17' E 014°22'0 0.0
2018-Apr-11 12:31N 67°17' E 014°22'0 0.0
2018-Apr-11 12:01N 67°17' E 014°22'0 0.0
2018-Apr-11 11:31N 67°17' E 014°22'0 0.0
2018-Apr-11 11:01N 67°17' E 014°22'0 0.0
2018-Apr-11 10:31N 67°17' E 014°22'0 0.0
2018-Apr-11 10:00N 67°17' E 014°22'0 0.0
2018-Apr-11 09:31N 67°17' E 014°22'0 0.0
2018-Apr-11 09:00N 67°17' E 014°22'0 0.9
2018-Apr-11 08:31N 67°17' E 014°23'0 0.9
2018-Apr-11 08:00N 67°17' E 014°22'1019.4
2018-Apr-11 07:31N 67°27' E 014°28'11 0.7
2018-Apr-10 16:11N 67°37' E 014°38'528.1
2018-Apr-10 15:59N 67°32' E 014°32'1428.9
2018-Apr-10 15:31N 67°19' E 014°23'2 3.2
2018-Apr-10 15:00N 67°17' E 014°22'0 0.0
2018-Apr-10 14:30N 67°17' E 014°22'0 0.0
2018-Apr-10 14:01N 67°17' E 014°22'0 0.0
2018-Apr-10 13:31N 67°17' E 014°22'0 0.0
2018-Apr-10 13:01N 67°17' E 014°22'0 0.0
2018-Apr-10 12:31N 67°17' E 014°22'0 0.0
2018-Apr-10 12:01N 67°17' E 014°22'0 0.0
2018-Apr-10 11:30N 67°17' E 014°22'0 0.0
2018-Apr-10 11:01N 67°17' E 014°22'0 0.0
2018-Apr-10 10:31N 67°17' E 014°22'0 0.8
2018-Apr-10 10:01N 67°17' E 014°23'2 4.5
2018-Apr-10 09:31N 67°16' E 014°18'1325.3
2018-Apr-10 09:00N 67°06' E 013°57'1427.1
2018-Apr-10 08:30N 66°58' E 013°30'1612.3
2018-Apr-10 07:11N 66°43' E 013°14'313.1
2018-Apr-10 06:55N 66°40' E 013°08'915.8
2018-Apr-10 06:23N 66°33' E 012°58'616.6
2018-Apr-10 06:00N 66°27' E 012°50'1121.0
2018-Apr-10 05:30N 66°17' E 012°54'1017.7
2018-Apr-10 04:55N 66°07' E 012°45'4 0.4
2018-Apr-09 18:58N 66°09' E 012°54'1423.5
2018-Apr-09 18:22N 66°23' E 012°48'717.8
2018-Apr-09 17:59N 66°29' E 012°58'912.2
2018-Apr-09 17:16N 66°37' E 012°59'916.2
2018-Apr-09 16:43N 66°43' E 013°17'1311.6
2018-Apr-09 15:34N 66°55' E 013°30'2 7.3
2018-Apr-09 15:21N 66°56' E 013°28'1128.4
2018-Apr-09 14:58N 67°03' E 013°49'1328.2
2018-Apr-09 14:30N 67°13' E 014°11'612.4
2018-Apr-09 14:00N 67°17' E 014°22'1 1.3
2018-Apr-09 13:30N 67°17' E 014°24'1 1.3
2018-Apr-09 13:00N 67°17' E 014°22'0 0.0
2018-Apr-09 12:30N 67°17' E 014°22'0 0.0
2018-Apr-09 12:00N 67°17' E 014°22'0 0.0
2018-Apr-09 11:30N 67°17' E 014°22'0 0.0
2018-Apr-09 11:00N 67°17' E 014°22'0 0.0
2018-Apr-09 10:30N 67°17' E 014°22'0 0.0
2018-Apr-09 10:00N 67°17' E 014°22'0 0.2
2018-Apr-09 09:31N 67°17' E 014°22'  

Dump ship's entire track history